Главная страница
METAR-TAF:

METAR-TAF

Аэропорты :

Веллингтон, Новая Зеландия

широта: 41-20S, долгота: 174-48E, высота над уровнем моря: 12 м

Текущие метеонаблюдения

Эта сводка был подготовлена 27 минут назад, в 09:30 UTC
Ветер 28 Узел от северный с порывами до 44 Узел
Температура 16°C
Влажность 68%
Давление 1014 hPa
Видимость 10 км и более

METAR: NZWN 240930Z AUTO 35028G44KT 9999 BKN031/// 16/10 Q1014

Время: 21:57 (09:57 UTC)

Прогноз

Эта сводка был подготовлена 1 час и 57 минут назад, в 08:00 UTC
Прогноз действительный с 24-го 09 UTC до 25-го 12 UTC
Ветер 20 Узел от северный с порывами до 30 Узел
Видимость 10 км и более
Рассеянная облачность на высоте 3000 фута
изменения
С 24-го 18 UTC до 24-го 20 UTC
Ветер 25 Узел от северный с порывами до 40 Узел
временами
С 25-го 11 UTC до 25-го 12 UTC
Видимость: 6000 м
ливневые дожди,

TAF: NZWN 240800Z 2409/2512 36020G30KT 9999 BKN030 BECMG 2418/2420 35025G40KT TEMPO 2511/2512 6000 SHRA

Метеонаблюдения и прогнозы для более 4000 аэропортов (сводки METAR и TAF).

Имеющиеся станции представлены на карте желтыми и красными точками.

Чтобы увидеть название станции, наведите на нее мышь.

Затем щелкните, чтобы увидеть метеонаблюдения и метеопрогнозы.

Управление картой: чтобы увеличить масштаб, щелкните зеленые кнопки с черным крестиком; чтобы уменьшить масштаб, щелкните зеленую кнопку с тире; для просмотра соседних карт щелкайте зеленые стрелки.


METAR-TAF: